createdAt,value
2018-08-28T00:00:09.438Z,99.90
2018-08-28T00:02:37.866Z,99.90
2018-08-28T00:05:06.441Z,99.90
2018-08-28T00:07:34.925Z,99.90
2018-08-28T00:10:03.344Z,99.90
2018-08-28T00:12:31.857Z,99.90
2018-08-28T00:15:00.375Z,99.90
2018-08-28T00:17:28.761Z,99.90
2018-08-28T00:19:57.175Z,99.90
2018-08-28T00:22:25.614Z,99.90
2018-08-28T00:24:54.037Z,99.90
2018-08-28T00:27:22.423Z,99.90
2018-08-28T00:29:50.955Z,99.90
2018-08-28T00:32:19.451Z,99.90
2018-08-28T00:34:47.890Z,99.90
2018-08-28T00:37:16.271Z,99.90
2018-08-28T00:39:44.711Z,99.90
2018-08-28T00:42:13.200Z,99.90
2018-08-28T00:44:41.593Z,99.90
2018-08-28T00:47:10.053Z,99.90
2018-08-28T00:49:38.474Z,99.90
2018-08-28T00:52:07.250Z,99.90
2018-08-28T00:54:35.637Z,99.90
2018-08-28T00:57:04.086Z,99.90
2018-08-28T00:59:32.534Z,99.90
2018-08-28T01:02:00.960Z,99.90
2018-08-28T01:04:29.414Z,99.90
2018-08-28T01:06:57.858Z,99.90
2018-08-28T01:09:26.302Z,99.90
2018-08-28T01:11:54.864Z,99.90
2018-08-28T01:14:23.240Z,99.90
2018-08-28T01:16:51.771Z,99.90
2018-08-28T01:19:20.375Z,99.90
2018-08-28T01:21:48.763Z,99.90
2018-08-28T01:24:17.113Z,99.90
2018-08-28T01:26:45.504Z,99.90
2018-08-28T01:29:13.959Z,99.90
2018-08-28T01:31:42.806Z,99.90
2018-08-28T01:34:11.238Z,99.90
2018-08-28T01:36:39.634Z,99.90
2018-08-28T01:39:08.381Z,99.90
2018-08-28T01:41:36.969Z,99.90
2018-08-28T01:44:05.315Z,99.90
2018-08-28T01:46:33.667Z,99.90
2018-08-28T01:49:02.106Z,99.90
2018-08-28T01:51:30.430Z,99.90
2018-08-28T01:53:58.805Z,99.90
2018-08-28T01:56:27.393Z,99.90
2018-08-28T01:58:55.750Z,99.50
2018-08-28T02:01:24.087Z,99.40
2018-08-28T02:03:52.433Z,99.50
2018-08-28T02:06:20.808Z,99.50
2018-08-28T02:08:49.557Z,99.50
2018-08-28T02:11:17.935Z,99.40
2018-08-28T02:13:46.300Z,98.90
2018-08-28T02:16:14.729Z,98.80
2018-08-28T02:18:43.067Z,98.70
2018-08-28T02:21:11.457Z,98.70
2018-08-28T02:23:39.798Z,99.00
2018-08-28T02:26:08.189Z,98.80
2018-08-28T02:28:36.549Z,99.00
2018-08-28T02:31:04.949Z,98.70
2018-08-28T02:33:33.447Z,98.90
2018-08-28T02:36:02.023Z,99.00
2018-08-28T02:38:30.365Z,98.80
2018-08-28T02:40:58.735Z,98.90
2018-08-28T02:43:27.102Z,99.10
2018-08-28T02:45:55.468Z,99.10
2018-08-28T02:48:23.810Z,99.00
2018-08-28T02:50:52.195Z,99.00
2018-08-28T02:53:20.517Z,98.90
2018-08-28T02:55:48.853Z,99.10
2018-08-28T02:58:17.176Z,99.20
2018-08-28T03:00:45.610Z,99.20
2018-08-28T03:03:13.965Z,99.30
2018-08-28T03:05:42.322Z,99.20
2018-08-28T03:08:10.938Z,99.30
2018-08-28T03:10:39.329Z,99.20
2018-08-28T03:13:07.702Z,99.40
2018-08-28T03:15:36.335Z,99.40
2018-08-28T03:18:05.608Z,99.50
2018-08-28T03:20:33.962Z,99.40
2018-08-28T03:23:02.391Z,99.70
2018-08-28T03:25:30.746Z,99.60
2018-08-28T03:27:59.095Z,99.50
2018-08-28T03:30:27.451Z,99.50
2018-08-28T03:32:55.839Z,99.90
2018-08-28T03:35:24.338Z,99.90
2018-08-28T03:37:52.697Z,99.90
2018-08-28T03:40:21.099Z,99.90
2018-08-28T03:42:49.478Z,99.90
2018-08-28T03:45:17.863Z,99.90
2018-08-28T03:47:46.233Z,99.90
2018-08-28T03:50:14.598Z,99.90
2018-08-28T03:52:43.066Z,99.90
2018-08-28T03:55:11.385Z,99.90
2018-08-28T03:57:39.784Z,99.90
2018-08-28T04:00:08.165Z,99.90
2018-08-28T04:02:36.523Z,99.90
2018-08-28T04:05:04.881Z,99.90
2018-08-28T04:07:33.272Z,99.90
2018-08-28T04:10:01.622Z,99.90
2018-08-28T04:12:29.984Z,99.90
2018-08-28T04:14:58.412Z,99.90
2018-08-28T04:17:26.773Z,99.90
2018-08-28T04:19:55.141Z,99.90
2018-08-28T04:22:23.538Z,99.90
2018-08-28T04:24:51.916Z,99.90
2018-08-28T04:27:20.302Z,99.90
2018-08-28T04:29:48.690Z,99.90
2018-08-28T04:32:17.026Z,99.90
2018-08-28T04:34:45.406Z,99.90
2018-08-28T04:37:13.858Z,99.90
2018-08-28T04:39:42.161Z,99.90
2018-08-28T04:42:10.538Z,99.90
2018-08-28T04:44:38.920Z,99.90
2018-08-28T04:47:07.298Z,99.90
2018-08-28T04:49:35.654Z,99.90
2018-08-28T04:52:04.045Z,99.90
2018-08-28T04:54:32.488Z,99.90
2018-08-28T04:57:00.966Z,99.90
2018-08-28T04:59:29.350Z,99.90
2018-08-28T05:01:57.740Z,99.90
2018-08-28T05:04:26.193Z,99.90
2018-08-28T05:06:54.556Z,99.90
2018-08-28T05:09:22.938Z,99.90
2018-08-28T05:11:51.405Z,99.90
2018-08-28T05:14:19.738Z,99.90
2018-08-28T05:16:48.152Z,99.90
2018-08-28T05:19:16.543Z,99.90
2018-08-28T05:21:44.907Z,99.90
2018-08-28T05:24:13.315Z,99.90
2018-08-28T05:26:41.793Z,99.90
2018-08-28T05:29:10.215Z,99.90
2018-08-28T05:31:38.578Z,99.90
2018-08-28T05:34:07.455Z,99.90
2018-08-28T05:36:36.040Z,99.90
2018-08-28T05:39:05.784Z,99.90
2018-08-28T05:41:34.145Z,99.90
2018-08-28T05:44:02.517Z,99.80
2018-08-28T05:46:30.890Z,99.90
2018-08-28T05:48:59.282Z,99.90
2018-08-28T05:51:27.617Z,99.90
2018-08-28T05:53:55.969Z,99.70
2018-08-28T05:56:24.402Z,99.40
2018-08-28T05:58:52.791Z,99.00
2018-08-28T06:01:21.162Z,98.90
2018-08-28T06:03:49.570Z,98.60
2018-08-28T06:06:17.922Z,98.30
2018-08-28T06:08:46.320Z,97.70
2018-08-28T06:11:45.738Z,97.30
2018-08-28T06:14:14.141Z,97.10
2018-08-28T06:16:42.549Z,96.70
2018-08-28T06:19:11.010Z,96.40
2018-08-28T06:21:39.396Z,96.40
2018-08-28T06:24:07.763Z,96.20
2018-08-28T06:26:36.180Z,96.20
2018-08-28T06:29:04.862Z,96.30
2018-08-28T06:31:33.232Z,96.10
2018-08-28T06:34:01.686Z,95.90
2018-08-28T06:36:30.101Z,95.60
2018-08-28T06:38:58.480Z,95.60
2018-08-28T06:41:26.894Z,95.60
2018-08-28T06:43:55.439Z,95.50
2018-08-28T06:46:23.841Z,95.20
2018-08-28T06:48:52.257Z,95.10
2018-08-28T06:51:20.641Z,95.00
2018-08-28T06:53:49.211Z,95.00
2018-08-28T06:56:17.582Z,94.40
2018-08-28T06:58:45.981Z,94.10
2018-08-28T07:01:14.379Z,94.20
2018-08-28T07:03:42.856Z,93.90
2018-08-28T07:06:11.295Z,93.80
2018-08-28T07:08:39.678Z,93.60
2018-08-28T07:11:08.187Z,93.20
2018-08-28T07:13:36.607Z,92.60
2018-08-28T07:16:05.231Z,92.10
2018-08-28T07:18:33.678Z,92.30
2018-08-28T07:21:02.199Z,92.20
2018-08-28T07:23:30.697Z,91.90
2018-08-28T07:25:59.178Z,91.80
2018-08-28T07:28:27.499Z,91.10
2018-08-28T07:30:55.902Z,90.60
2018-08-28T07:33:24.369Z,90.60
2018-08-28T07:35:52.806Z,90.40
2018-08-28T07:38:22.117Z,90.70
2018-08-28T07:40:50.503Z,90.20
2018-08-28T07:43:18.861Z,89.80
2018-08-28T07:45:47.246Z,86.90
2018-08-28T07:48:15.769Z,87.00
2018-08-28T07:50:44.065Z,86.00
2018-08-28T07:53:12.475Z,84.10
2018-08-28T07:55:40.894Z,82.30
2018-08-28T07:58:09.278Z,83.20
2018-08-28T08:00:37.744Z,82.10
2018-08-28T08:03:06.173Z,80.50
2018-08-28T08:05:34.618Z,78.10
2018-08-28T08:08:03.027Z,78.70
2018-08-28T08:10:31.479Z,79.10
2018-08-28T08:12:59.962Z,79.30
2018-08-28T08:15:28.420Z,79.20
2018-08-28T08:17:56.831Z,78.10
2018-08-28T08:20:25.325Z,77.30
2018-08-28T08:22:53.814Z,76.90
2018-08-28T08:25:22.285Z,77.20
2018-08-28T08:27:50.764Z,76.10
2018-08-28T08:30:19.184Z,77.00
2018-08-28T08:32:47.622Z,77.70
2018-08-28T08:35:16.161Z,76.90
2018-08-28T08:37:44.559Z,76.40
2018-08-28T08:40:13.450Z,74.50
2018-08-28T08:42:41.845Z,73.10
2018-08-28T08:45:10.333Z,69.90
2018-08-28T08:47:38.758Z,68.80
2018-08-28T08:50:07.121Z,67.90
2018-08-28T08:52:35.573Z,67.00
2018-08-28T08:55:04.237Z,66.50
2018-08-28T08:57:32.683Z,66.40
2018-08-28T09:00:00.998Z,64.00
2018-08-28T09:02:29.438Z,62.50
2018-08-28T09:04:57.783Z,61.30
2018-08-28T09:07:26.178Z,60.70
2018-08-28T09:09:54.597Z,60.30
2018-08-28T09:12:23.197Z,59.70
2018-08-28T09:14:51.565Z,59.20
2018-08-28T09:17:20.051Z,58.90
2018-08-28T09:19:48.472Z,58.30
2018-08-28T09:22:16.897Z,58.50
2018-08-28T09:24:45.287Z,58.20
2018-08-28T09:27:13.853Z,58.40
2018-08-28T09:29:42.407Z,58.60
2018-08-28T09:32:11.178Z,58.00
2018-08-28T09:34:39.584Z,57.70
2018-08-28T09:37:08.106Z,58.10
2018-08-28T09:39:36.573Z,58.00
2018-08-28T09:42:04.935Z,57.50
2018-08-28T09:44:33.346Z,57.90
2018-08-28T09:47:01.886Z,58.40
2018-08-28T09:49:30.519Z,57.20
2018-08-28T09:51:58.959Z,57.40
2018-08-28T09:54:27.424Z,55.80
2018-08-28T09:56:56.511Z,55.30
2018-08-28T09:59:24.946Z,55.10
2018-08-28T10:01:53.946Z,54.70
2018-08-28T10:04:22.311Z,54.70
2018-08-28T10:06:50.693Z,54.60
2018-08-28T10:09:19.376Z,54.90
2018-08-28T10:11:47.854Z,55.50
2018-08-28T10:14:16.255Z,54.80
2018-08-28T10:16:44.728Z,53.70
2018-08-28T10:19:13.204Z,53.30
2018-08-28T10:21:41.661Z,53.00
2018-08-28T10:24:10.104Z,52.30
2018-08-28T10:26:38.470Z,51.80
2018-08-28T10:29:06.959Z,51.20
2018-08-28T10:31:35.445Z,51.80
2018-08-28T10:34:04.173Z,53.00
2018-08-28T10:36:32.581Z,52.60
2018-08-28T10:39:01.267Z,52.70
2018-08-28T10:41:31.097Z,53.20
2018-08-28T10:43:59.545Z,53.70
2018-08-28T10:46:28.071Z,53.30
2018-08-28T10:48:56.439Z,53.10
2018-08-28T10:51:25.033Z,51.80
2018-08-28T10:53:53.401Z,51.70
2018-08-28T10:56:21.853Z,51.00
2018-08-28T10:58:50.282Z,52.00
2018-08-28T11:01:18.686Z,51.20
2018-08-28T11:03:47.135Z,50.50
2018-08-28T11:06:15.578Z,50.30
2018-08-28T11:08:44.045Z,50.10
2018-08-28T11:11:12.485Z,50.50
2018-08-28T11:13:40.879Z,50.30
2018-08-28T11:16:09.400Z,49.20
2018-08-28T11:18:37.787Z,50.30
2018-08-28T11:21:06.396Z,48.80
2018-08-28T11:23:34.817Z,48.70
2018-08-28T11:26:03.245Z,49.40
2018-08-28T11:28:31.611Z,49.20
2018-08-28T11:30:59.998Z,47.60
2018-08-28T11:33:28.373Z,47.50
2018-08-28T11:35:56.757Z,45.30
2018-08-28T11:38:25.187Z,44.60
2018-08-28T11:40:53.589Z,44.10
2018-08-28T11:43:22.151Z,42.90
2018-08-28T11:45:50.764Z,43.50
2018-08-28T11:48:19.110Z,43.20
2018-08-28T11:50:47.610Z,42.40
2018-08-28T11:53:16.055Z,41.00
2018-08-28T11:55:44.403Z,40.30
2018-08-28T11:58:12.870Z,39.50
2018-08-28T12:00:41.295Z,39.30
2018-08-28T12:03:09.770Z,37.90
2018-08-28T12:05:38.585Z,37.20
2018-08-28T12:08:06.948Z,36.10
2018-08-28T12:10:35.349Z,36.40
2018-08-28T12:13:03.800Z,36.60
2018-08-28T12:15:32.238Z,36.70
2018-08-28T12:18:00.714Z,36.30
2018-08-28T12:20:29.276Z,36.30
2018-08-28T12:22:57.737Z,34.40
2018-08-28T12:25:26.141Z,33.30
2018-08-28T12:27:54.570Z,33.30
2018-08-28T12:30:22.956Z,32.40
2018-08-28T12:32:51.394Z,33.70
2018-08-28T12:35:19.782Z,34.20
2018-08-28T12:37:48.448Z,34.50
2018-08-28T12:40:16.838Z,33.90
2018-08-28T12:42:45.327Z,34.10
2018-08-28T12:45:13.756Z,33.30
2018-08-28T12:47:42.485Z,31.80
2018-08-28T12:50:11.682Z,32.10
2018-08-28T12:52:40.100Z,32.50
2018-08-28T12:55:08.618Z,32.30
2018-08-28T12:57:37.103Z,33.00
2018-08-28T13:00:05.595Z,35.10
2018-08-28T13:02:34.282Z,36.60
2018-08-28T13:05:03.241Z,36.70
2018-08-28T13:07:31.844Z,36.40
2018-08-28T13:10:00.363Z,35.50
2018-08-28T13:12:28.834Z,35.00
2018-08-28T13:14:57.334Z,35.00
2018-08-28T13:17:25.884Z,32.40
2018-08-28T13:19:54.315Z,29.90
2018-08-28T13:22:22.723Z,29.50
2018-08-28T13:24:51.354Z,28.50
2018-08-28T13:27:22.572Z,29.00
2018-08-28T13:29:50.924Z,28.40
2018-08-28T13:32:19.306Z,27.90
2018-08-28T13:34:47.727Z,27.80
2018-08-28T13:39:59.503Z,28.10
2018-08-28T13:42:29.230Z,28.30
2018-08-28T13:44:57.992Z,28.00
2018-08-28T13:47:26.520Z,26.70
2018-08-28T13:49:54.893Z,26.30
2018-08-28T13:52:23.275Z,25.70
2018-08-28T13:54:51.651Z,26.00
2018-08-28T13:57:20.097Z,27.30
2018-08-28T13:59:48.630Z,26.50
2018-08-28T14:02:17.035Z,25.10
2018-08-28T14:04:45.410Z,23.90
2018-08-28T14:07:14.417Z,23.80
2018-08-28T14:09:42.851Z,24.00
2018-08-28T14:12:11.386Z,23.70
2018-08-28T14:14:40.118Z,23.90
2018-08-28T14:17:08.691Z,23.10
2018-08-28T14:19:37.455Z,22.90
2018-08-28T14:22:05.854Z,22.70
2018-08-28T14:24:34.453Z,22.40
2018-08-28T14:27:02.972Z,23.40
2018-08-28T14:29:31.519Z,23.50
2018-08-28T14:31:59.851Z,23.00
2018-08-28T14:34:28.234Z,24.20
2018-08-28T14:36:56.688Z,23.60
2018-08-28T14:39:25.147Z,24.10
2018-08-28T14:41:53.564Z,24.40
2018-08-28T14:44:22.122Z,24.70
2018-08-28T14:46:50.549Z,23.00
2018-08-28T14:49:19.306Z,21.60
2018-08-28T14:51:47.786Z,21.60
2018-08-28T14:54:16.247Z,20.90
2018-08-28T14:56:44.939Z,22.80
2018-08-28T14:59:13.109Z,24.20
2018-08-28T15:01:41.520Z,23.10
2018-08-28T15:04:09.951Z,24.00
2018-08-28T15:06:38.345Z,24.50
2018-08-28T15:11:42.893Z,25.10
2018-08-28T15:14:11.311Z,25.20
2018-08-28T15:16:39.817Z,24.20
2018-08-28T15:19:08.173Z,23.20
2018-08-28T15:21:36.544Z,21.50
2018-08-28T15:24:05.217Z,20.50
2018-08-28T15:26:34.661Z,20.40
2018-08-28T15:29:03.092Z,21.10
2018-08-28T15:31:31.539Z,22.20
2018-08-28T15:33:59.918Z,23.80
2018-08-28T15:36:28.296Z,25.30
2018-08-28T15:38:56.878Z,24.10
2018-08-28T15:41:25.253Z,24.10
2018-08-28T15:43:53.702Z,24.00
2018-08-28T15:46:22.172Z,24.90
2018-08-28T15:48:50.595Z,24.20
2018-08-28T15:51:19.149Z,24.70
2018-08-28T15:53:47.461Z,25.20
2018-08-28T15:56:16.003Z,25.40
2018-08-28T15:58:44.512Z,24.80
2018-08-28T16:01:12.898Z,25.10
2018-08-28T16:03:41.420Z,25.90
2018-08-28T16:06:09.788Z,25.80
2018-08-28T16:08:38.286Z,25.90
2018-08-28T16:11:06.671Z,25.60
2018-08-28T16:13:35.046Z,23.30
2018-08-28T16:16:03.493Z,24.40
2018-08-28T16:18:31.969Z,24.10
2018-08-28T16:21:00.350Z,24.00
2018-08-28T16:23:30.020Z,24.40
2018-08-28T16:25:58.787Z,24.90
2018-08-28T16:28:27.283Z,23.60
2018-08-28T16:30:55.634Z,22.10
2018-08-28T16:33:24.026Z,21.40
2018-08-28T16:35:52.846Z,22.50
2018-08-28T16:38:21.200Z,23.60
2018-08-28T16:40:49.635Z,24.40
2018-08-28T16:43:18.017Z,23.50
2018-08-28T16:45:46.397Z,23.50
2018-08-28T16:48:14.815Z,23.50
2018-08-28T16:50:43.140Z,25.80
2018-08-28T16:53:11.571Z,26.20
2018-08-28T16:55:40.043Z,26.50
2018-08-28T16:58:08.521Z,24.90
2018-08-28T17:00:37.186Z,25.00
2018-08-28T17:03:05.603Z,25.50
2018-08-28T17:05:34.041Z,25.60
2018-08-28T17:08:02.431Z,26.60
2018-08-28T17:10:30.875Z,28.70
2018-08-28T17:12:59.306Z,28.70
2018-08-28T17:15:27.745Z,29.80
2018-08-28T17:17:56.554Z,30.20
2018-08-28T17:20:24.955Z,29.80
2018-08-28T17:22:53.346Z,30.50
2018-08-28T17:25:28.394Z,30.60
2018-08-28T17:27:56.793Z,30.80
2018-08-28T17:30:25.283Z,30.90
2018-08-28T17:32:53.720Z,30.50
2018-08-28T17:35:22.187Z,31.40
2018-08-28T17:37:50.610Z,32.00
2018-08-28T17:40:19.016Z,33.60
2018-08-28T17:42:47.374Z,34.80
2018-08-28T17:45:15.790Z,35.40
2018-08-28T17:47:44.157Z,36.60
2018-08-28T17:50:12.553Z,36.50
2018-08-28T17:52:40.922Z,36.60
2018-08-28T17:55:09.501Z,36.20
2018-08-28T17:57:37.993Z,36.20
2018-08-28T18:00:07.299Z,37.30
2018-08-28T18:02:35.882Z,37.90
2018-08-28T18:05:04.408Z,38.70
2018-08-28T18:07:32.786Z,39.50
2018-08-28T18:10:01.422Z,40.30
2018-08-28T18:12:29.828Z,41.00
2018-08-28T18:14:58.318Z,41.50
2018-08-28T18:17:26.679Z,42.10
2018-08-28T18:19:55.318Z,42.60
2018-08-28T18:22:23.738Z,43.20
2018-08-28T18:24:52.125Z,43.30
2018-08-28T18:27:20.520Z,43.70
2018-08-28T18:29:49.162Z,44.30
2018-08-28T18:32:17.663Z,44.30
2018-08-28T18:34:46.295Z,44.50
2018-08-28T18:37:14.838Z,45.00
2018-08-28T18:39:43.226Z,45.40
2018-08-28T18:42:11.698Z,45.80
2018-08-28T18:44:40.084Z,46.20
2018-08-28T18:47:08.533Z,47.30
2018-08-28T18:49:36.975Z,46.70
2018-08-28T18:52:05.430Z,47.00
2018-08-28T18:54:33.879Z,47.40
2018-08-28T18:57:02.314Z,47.20
2018-08-28T18:59:30.731Z,47.50
2018-08-28T19:01:59.183Z,47.70
2018-08-28T19:04:27.659Z,47.70
2018-08-28T19:06:56.062Z,47.90
2018-08-28T19:09:24.535Z,47.90
2018-08-28T19:11:52.922Z,48.30
2018-08-28T19:14:21.355Z,48.40
2018-08-28T19:16:49.785Z,48.60
2018-08-28T19:19:18.224Z,48.70
2018-08-28T19:21:46.628Z,49.00
2018-08-28T19:24:15.017Z,49.00
2018-08-28T19:26:43.382Z,49.20
2018-08-28T19:29:11.770Z,49.50
2018-08-28T19:31:40.188Z,49.90
2018-08-28T19:34:08.521Z,50.00
2018-08-28T19:36:36.863Z,50.20
2018-08-28T19:39:05.694Z,50.30
2018-08-28T19:41:34.038Z,50.40
2018-08-28T19:44:02.456Z,50.60
2018-08-28T19:46:30.843Z,50.60
2018-08-28T19:48:59.214Z,50.80
2018-08-28T19:51:27.586Z,50.90
2018-08-28T19:53:55.991Z,51.70
2018-08-28T19:56:24.382Z,51.20
2018-08-28T19:58:52.721Z,51.50
2018-08-28T20:01:22.125Z,51.80
2018-08-28T20:03:50.536Z,52.10
2018-08-28T20:06:18.969Z,52.40
2018-08-28T20:08:47.395Z,52.60
2018-08-28T20:11:15.858Z,53.10
2018-08-28T20:13:44.254Z,53.50
2018-08-28T20:16:12.728Z,53.90
2018-08-28T20:18:41.119Z,54.40
2018-08-28T20:21:09.519Z,54.70
2018-08-28T20:23:37.933Z,55.40
2018-08-28T20:26:06.575Z,56.00
2018-08-28T20:28:35.036Z,56.30
2018-08-28T20:31:03.483Z,56.80
2018-08-28T20:33:31.955Z,57.30
2018-08-28T20:36:00.529Z,57.50
2018-08-28T20:38:28.887Z,58.00
2018-08-28T20:40:57.411Z,58.00
2018-08-28T20:43:25.767Z,58.30
2018-08-28T20:45:54.163Z,58.50
2018-08-28T20:48:22.569Z,59.10
2018-08-28T20:50:50.988Z,59.50
2018-08-28T20:53:19.355Z,59.90
2018-08-28T20:55:47.775Z,60.00
2018-08-28T20:58:16.322Z,60.70
2018-08-28T21:00:44.868Z,61.60
2018-08-28T21:03:13.257Z,61.60
2018-08-28T21:05:41.664Z,61.10
2018-08-28T21:08:10.053Z,61.20
2018-08-28T21:10:38.604Z,61.50
2018-08-28T21:13:07.040Z,62.00
2018-08-28T21:15:35.386Z,62.50
2018-08-28T21:18:03.738Z,63.10
2018-08-28T21:20:32.093Z,63.30
2018-08-28T21:23:00.562Z,64.20
2018-08-28T21:25:28.965Z,65.20
2018-08-28T21:27:57.375Z,66.00
2018-08-28T21:30:25.765Z,67.10
2018-08-28T21:32:54.111Z,68.30
2018-08-28T21:35:22.489Z,69.00
2018-08-28T21:37:50.828Z,69.00
2018-08-28T21:40:19.205Z,69.30
2018-08-28T21:42:47.555Z,69.80
2018-08-28T21:45:15.947Z,70.00
2018-08-28T21:47:44.296Z,70.20
2018-08-28T21:50:12.678Z,70.70
2018-08-28T21:52:41.037Z,71.10
2018-08-28T21:55:09.431Z,71.20
2018-08-28T21:57:37.809Z,71.60
2018-08-28T22:00:06.645Z,71.30
2018-08-28T22:02:35.026Z,72.00
2018-08-28T22:05:03.636Z,72.40
2018-08-28T22:07:37.357Z,72.80
2018-08-28T22:10:05.761Z,73.30
2018-08-28T22:12:34.166Z,73.30
2018-08-28T22:15:02.538Z,73.70
2018-08-28T22:17:30.914Z,74.40
2018-08-28T22:19:59.343Z,74.70
2018-08-28T22:22:27.744Z,75.80
2018-08-28T22:24:56.155Z,77.80
2018-08-28T22:27:24.544Z,78.20
2018-08-28T22:29:52.889Z,76.90
2018-08-28T22:32:21.267Z,77.00
2018-08-28T22:34:49.666Z,75.90
2018-08-28T22:37:18.012Z,75.90
2018-08-28T22:39:46.405Z,76.00
2018-08-28T22:42:14.810Z,76.10
2018-08-28T22:44:43.164Z,75.50
2018-08-28T22:47:11.556Z,75.50
2018-08-28T22:49:39.905Z,76.00
2018-08-28T22:52:08.274Z,75.50
2018-08-28T22:54:36.611Z,75.90
2018-08-28T22:57:05.269Z,75.90
2018-08-28T22:59:33.673Z,76.40
2018-08-28T23:02:02.072Z,76.70
2018-08-28T23:04:30.394Z,77.30
2018-08-28T23:06:58.745Z,76.50
2018-08-28T23:09:27.106Z,76.70
2018-08-28T23:11:55.474Z,77.70
2018-08-28T23:14:23.832Z,77.50
2018-08-28T23:16:52.228Z,77.50
2018-08-28T23:19:20.569Z,78.00
2018-08-28T23:21:48.928Z,78.70
2018-08-28T23:24:17.311Z,79.00
2018-08-28T23:26:45.730Z,80.20
2018-08-28T23:29:14.074Z,80.80
2018-08-28T23:31:42.431Z,80.90
2018-08-28T23:34:10.794Z,81.00
2018-08-28T23:36:39.135Z,80.50
2018-08-28T23:39:07.975Z,81.60
2018-08-28T23:41:36.321Z,82.10
2018-08-28T23:44:04.877Z,82.90
2018-08-28T23:46:33.257Z,83.30
2018-08-28T23:49:01.662Z,82.40
2018-08-28T23:51:30.000Z,81.80
2018-08-28T23:53:59.340Z,82.90
2018-08-28T23:56:27.721Z,82.20
2018-08-28T23:58:56.107Z,82.60
